Time;durP1;ratioP1;P1;durP2;ratioP2;P2;SDS_P1;SDS_P2;PMS_P1;PMS_P2;Temp;Humidity;BMP_temperature;BMP_pressure;BME280_temperature;BME280_humidity;BME280_pressure;Samples;Min_cycle;Max_cycle;Signal;HPM_P1;HPM_P2
2024/01/14 00:00:50;;;;;;;43.07;22.80;;;1.30;99.90;;;;;;5075355;28;20278;-48
2024/01/14 00:03:15;;;;;;;46.03;21.40;;;1.30;99.90;;;;;;5075554;28;20601;-48
2024/01/14 00:05:41;;;;;;;39.40;16.67;;;1.30;99.90;;;;;;5075199;28;20672;-48
2024/01/14 00:08:07;;;;;;;29.53;12.73;;;1.30;99.90;;;;;;5057190;28;20183;-48
2024/01/14 00:10:39;;;;;;;43.33;21.83;;;1.30;99.90;;;;;;5075134;28;20554;-47
2024/01/14 00:13:05;;;;;;;32.53;16.83;;;1.30;99.90;;;;;;5074967;28;20180;-46
2024/01/14 00:15:30;;;;;;;38.40;17.90;;;1.30;99.90;;;;;;5074874;28;20234;-45
2024/01/14 00:17:56;;;;;;;33.13;15.13;;;1.30;99.90;;;;;;5075133;28;20217;-47
2024/01/14 00:20:22;;;;;;;39.07;17.77;;;1.30;99.90;;;;;;5074770;28;20182;-46
2024/01/14 00:22:48;;;;;;;41.03;17.07;;;1.30;99.90;;;;;;5074686;28;20254;-47
2024/01/14 00:25:14;;;;;;;51.30;23.00;;;1.30;99.90;;;;;;5074848;28;20210;-46
2024/01/14 00:27:40;;;;;;;36.23;16.57;;;1.30;99.90;;;;;;5056795;28;20647;-47
2024/01/14 00:30:06;;;;;;;40.77;18.17;;;1.30;99.90;;;;;;5075173;28;20593;-47
2024/01/14 00:32:32;;;;;;;42.07;17.80;;;1.30;99.90;;;;;;5075001;28;20159;-46
2024/01/14 00:34:58;;;;;;;35.23;17.33;;;1.10;99.90;;;;;;5074751;28;20226;-48
2024/01/14 00:37:26;;;;;;;47.77;22.40;;;1.30;99.90;;;;;;5075022;28;20164;-47
2024/01/14 00:39:55;;;;;;;42.07;19.63;;;1.30;99.90;;;;;;5074037;28;20184;-47
2024/01/14 00:42:21;;;;;;;37.57;16.87;;;1.30;99.90;;;;;;5074597;28;20195;-47
2024/01/14 00:44:53;;;;;;;41.43;17.63;;;1.30;99.90;;;;;;5056558;28;20202;-45
2024/01/14 00:47:22;;;;;;;32.43;16.63;;;1.30;99.90;;;;;;5073519;28;20184;-47
2024/01/14 00:49:48;;;;;;;53.97;23.03;;;1.30;99.90;;;;;;5074541;28;20242;-46
2024/01/14 00:52:14;;;;;;;45.43;19.67;;;1.30;99.90;;;;;;5074262;28;20646;-47
2024/01/14 00:54:42;;;;;;;35.27;18.20;;;1.30;99.90;;;;;;5074229;28;20191;-47
2024/01/14 00:57:10;;;;;;;47.10;22.50;;;1.30;99.90;;;;;;5074246;28;20337;-41
2024/01/14 00:59:36;;;;;;;43.50;19.20;;;1.30;99.90;;;;;;5074106;28;20266;-45
2024/01/14 01:02:02;;;;;;;44.83;18.93;;;1.30;99.90;;;;;;5074426;28;20178;-41
2024/01/14 01:04:29;;;;;;;42.47;21.47;;;1.30;99.90;;;;;;5074006;28;20199;-46
2024/01/14 01:06:58;;;;;;;44.80;20.33;;;1.30;99.90;;;;;;5074067;28;20674;-47
2024/01/14 01:09:25;;;;;;;46.60;22.30;;;1.30;99.90;;;;;;5073956;28;20180;-47
2024/01/14 01:11:50;;;;;;;48.33;22.13;;;1.30;99.90;;;;;;5073852;28;20167;-46
2024/01/14 01:14:16;;;;;;;41.27;19.97;;;1.30;99.90;;;;;;5039286;28;20190;-49
2024/01/14 01:16:49;;;;;;;36.67;17.00;;;1.30;99.90;;;;;;5073743;28;20705;-47
2024/01/14 01:19:18;;;;;;;43.60;19.07;;;1.30;99.90;;;;;;5073754;28;20164;-47
2024/01/14 01:21:43;;;;;;;46.20;22.37;;;1.30;99.90;;;;;;5075420;28;20258;-47
2024/01/14 01:24:14;;;;;;;37.67;16.40;;;1.30;99.90;;;;;;5075418;28;20238;-42
2024/01/14 01:26:41;;;;;;;49.33;23.70;;;1.20;99.90;;;;;;5075704;28;20737;-41
2024/01/14 01:29:07;;;;;;;27.80;12.30;;;1.30;99.90;;;;;;5056375;28;20647;-41
2024/01/14 01:31:33;;;;;;;43.83;20.33;;;1.20;99.90;;;;;;5073710;28;20175;-43
2024/01/14 01:33:59;;;;;;;51.60;22.80;;;1.20;99.90;;;;;;5055936;28;20184;-43
2024/01/14 01:36:26;;;;;;;33.03;14.83;;;1.20;99.90;;;;;;5038973;28;20214;-42
2024/01/14 01:38:52;;;;;;;42.73;16.27;;;1.20;99.90;;;;;;5073676;28;20214;-45
2024/01/14 01:41:19;;;;;;;40.20;17.63;;;1.20;99.90;;;;;;5055891;28;20176;-43
2024/01/14 01:43:45;;;;;;;50.27;24.33;;;1.20;99.90;;;;;;5060048;28;20219;-42
2024/01/14 01:46:15;;;;;;;43.10;20.00;;;1.20;99.90;;;;;;5078140;28;20220;-42
2024/01/14 01:48:46;;;;;;;46.23;22.10;;;1.20;99.90;;;;;;5077577;28;20164;-43
2024/01/14 01:51:13;;;;;;;45.93;22.67;;;1.30;99.90;;;;;;5069900;28;20192;-43
2024/01/14 01:53:40;;;;;;;46.23;20.83;;;1.30;99.90;;;;;;5039305;28;20245;-43
2024/01/14 01:56:08;;;;;;;43.93;20.10;;;1.20;99.90;;;;;;5072588;28;20641;-44
2024/01/14 01:58:33;;;;;;;49.30;20.47;;;1.20;99.90;;;;;;5073509;28;20245;-45
2024/01/14 02:00:59;;;;;;;45.50;20.50;;;1.20;99.90;;;;;;5073912;28;20639;-47
2024/01/14 02:03:25;;;;;;;43.23;17.80;;;1.20;99.90;;;;;;5074366;28;20210;-49
2024/01/14 02:06:02;;;;;;;36.23;15.83;;;1.20;99.90;;;;;;5073700;28;20554;-43
2024/01/14 02:09:21;;;;;;;44.53;20.57;;;1.30;99.90;;;;;;5073857;28;20174;-41
2024/01/14 02:11:47;;;;;;;41.57;18.07;;;1.30;99.90;;;;;;5073992;28;20183;-45
2024/01/14 02:14:13;;;;;;;31.27;13.13;;;1.30;99.90;;;;;;5056188;28;20191;-46
2024/01/14 02:16:40;;;;;;;41.53;20.73;;;1.20;99.90;;;;;;5073747;28;20191;-48
2024/01/14 02:19:07;;;;;;;34.07;15.50;;;1.20;99.90;;;;;;5073421;28;20182;-47
2024/01/14 02:21:38;;;;;;;42.20;18.47;;;1.20;99.90;;;;;;5056236;28;20215;-47
2024/01/14 02:24:31;;;;;;;40.93;18.53;;;1.20;99.90;;;;;;5072564;28;20249;-48
2024/01/14 02:27:00;;;;;;;40.00;18.40;;;1.20;99.90;;;;;;5072905;28;20253;-48
2024/01/14 02:29:28;;;;;;;38.17;15.17;;;1.20;99.90;;;;;;5073524;28;20536;-46
2024/01/14 02:31:54;;;;;;;42.43;20.93;;;1.20;99.90;;;;;;5072951;28;20588;-46
2024/01/14 02:34:20;;;;;;;42.57;20.20;;;1.20;99.90;;;;;;5055082;28;20221;-44
2024/01/14 02:36:46;;;;;;;24.40;10.23;;;1.20;99.90;;;;;;5055181;28;20195;-45
2024/01/14 02:39:17;;;;;;;24.83;12.53;;;1.20;99.90;;;;;;5072992;28;20191;-48
2024/01/14 02:41:43;;;;;;;40.73;18.23;;;1.20;99.90;;;;;;5073463;28;20254;-46
2024/01/14 02:44:10;;;;;;;44.60;18.77;;;1.20;99.90;;;;;;5073056;28;20735;-48
2024/01/14 02:46:36;;;;;;;42.13;20.13;;;1.20;99.90;;;;;;5073030;28;20202;-47
2024/01/14 02:49:01;;;;;;;31.67;13.63;;;1.20;99.90;;;;;;5072784;28;20180;-47
2024/01/14 02:51:28;;;;;;;30.77;13.10;;;1.30;99.90;;;;;;5073162;28;20182;-47
2024/01/14 02:53:54;;;;;;;32.67;14.83;;;1.30;99.90;;;;;;5055330;28;20184;-48
2024/01/14 02:56:21;;;;;;;37.43;13.20;;;1.20;99.90;;;;;;5072605;28;20624;-48
2024/01/14 02:58:47;;;;;;;29.30;11.33;;;1.20;99.90;;;;;;5055392;28;20233;-49
2024/01/14 03:01:13;;;;;;;22.67;11.00;;;1.30;99.90;;;;;;5054913;28;20179;-48
2024/01/14 03:03:38;;;;;;;36.67;16.70;;;1.20;99.90;;;;;;5055119;28;20211;-49
2024/01/14 03:06:08;;;;;;;41.63;16.53;;;1.20;99.90;;;;;;5071887;28;20290;-48
2024/01/14 03:08:37;;;;;;;43.17;18.33;;;1.20;99.90;;;;;;5055350;28;20691;-47
2024/01/14 03:11:04;;;;;;;42.13;19.37;;;1.20;99.90;;;;;;5076688;28;20250;-47
2024/01/14 03:13:30;;;;;;;33.67;14.83;;;1.20;99.90;;;;;;5076233;28;20562;-48
2024/01/14 03:15:55;;;;;;;35.80;14.03;;;1.20;99.90;;;;;;5076266;28;20202;-47
2024/01/14 03:18:22;;;;;;;29.23;15.10;;;1.20;99.90;;;;;;5076397;28;20647;-47
2024/01/14 03:20:48;;;;;;;46.10;18.17;;;1.20;99.90;;;;;;5058361;28;20211;-47
2024/01/14 03:23:14;;;;;;;37.20;16.53;;;1.20;99.90;;;;;;5058353;28;20252;-46
2024/01/14 03:25:39;;;;;;;42.97;19.80;;;1.20;99.90;;;;;;5076115;28;20195;-45
2024/01/14 03:28:05;;;;;;;40.80;16.30;;;1.20;99.90;;;;;;5075961;28;20180;-45
2024/01/14 03:30:36;;;;;;;48.63;21.77;;;1.20;99.90;;;;;;5058032;28;20543;-46
2024/01/14 03:33:02;;;;;;;38.70;17.07;;;1.20;99.90;;;;;;5075799;28;20168;-45
2024/01/14 03:35:28;;;;;;;39.10;17.77;;;1.20;99.90;;;;;;5075959;28;20206;-46
2024/01/14 03:37:54;;;;;;;40.97;18.00;;;1.20;99.90;;;;;;5076247;28;20184;-48
2024/01/14 03:40:20;;;;;;;45.27;19.73;;;1.20;99.90;;;;;;5059627;28;20270;-47
2024/01/14 03:42:47;;;;;;;42.97;18.83;;;1.20;99.90;;;;;;5077580;28;20261;-46
2024/01/14 03:45:13;;;;;;;36.33;18.10;;;1.20;99.90;;;;;;5077157;28;20202;-47
2024/01/14 03:47:38;;;;;;;44.10;17.03;;;1.20;99.90;;;;;;5058240;28;20620;-48
2024/01/14 03:50:04;;;;;;;41.83;17.87;;;1.10;99.90;;;;;;5057623;28;20176;-45
2024/01/14 03:52:33;;;;;;;45.70;20.13;;;1.20;99.90;;;;;;5075367;28;20172;-47
2024/01/14 03:54:58;;;;;;;40.33;18.90;;;1.10;99.90;;;;;;5075087;28;20194;-46
2024/01/14 03:57:24;;;;;;;39.30;16.57;;;1.10;99.90;;;;;;5075554;28;20156;-46
2024/01/14 03:59:50;;;;;;;37.00;16.00;;;1.10;99.90;;;;;;5075524;28;20666;-46
2024/01/14 04:02:26;;;;;;;44.30;18.77;;;1.10;99.90;;;;;;5040642;28;20188;-45
2024/01/14 04:04:52;;;;;;;37.23;14.83;;;1.10;99.90;;;;;;5075378;28;20249;-48
2024/01/14 04:07:18;;;;;;;33.27;16.13;;;1.10;99.90;;;;;;5075355;28;20171;-46
2024/01/14 04:09:48;;;;;;;41.77;18.67;;;1.10;99.90;;;;;;5075007;28;20236;-49
2024/01/14 04:12:14;;;;;;;37.47;16.87;;;1.10;99.90;;;;;;5075832;28;20164;-47
2024/01/14 04:14:45;;;;;;;34.43;13.57;;;1.10;99.90;;;;;;5057628;28;20548;-48
2024/01/14 04:17:10;;;;;;;34.90;15.33;;;1.10;99.90;;;;;;5056998;28;20238;-48
2024/01/14 04:19:37;;;;;;;32.70;13.80;;;1.10;99.90;;;;;;5074570;28;20650;-47
2024/01/14 04:22:08;;;;;;;31.43;14.23;;;1.10;99.90;;;;;;5057205;28;20199;-47
2024/01/14 04:24:35;;;;;;;24.43;12.23;;;1.10;99.90;;;;;;5075312;28;20203;-46
2024/01/14 04:27:04;;;;;;;36.50;15.63;;;1.00;99.90;;;;;;5074856;28;20196;-42
2024/01/14 04:29:30;;;;;;;29.57;13.53;;;1.00;99.90;;;;;;5075727;28;20551;-48
2024/01/14 04:31:55;;;;;;;28.53;13.23;;;1.00;99.90;;;;;;5074936;28;20180;-49
2024/01/14 04:34:21;;;;;;;30.77;13.80;;;1.00;99.90;;;;;;5057037;28;20663;-49
2024/01/14 04:36:48;;;;;;;30.07;14.07;;;1.00;99.90;;;;;;5074439;28;20214;-48
2024/01/14 04:39:17;;;;;;;33.83;14.67;;;1.00;99.90;;;;;;5073676;28;20222;-48
2024/01/14 04:41:44;;;;;;;30.97;14.67;;;1.00;99.90;;;;;;5074335;28;20241;-48
2024/01/14 04:44:11;;;;;;;25.40;13.00;;;1.00;99.90;;;;;;5074473;28;20290;-49
2024/01/14 04:46:41;;;;;;;30.60;13.43;;;1.00;99.90;;;;;;5074590;28;20199;-46
2024/01/14 04:49:08;;;;;;;22.63;11.60;;;1.10;99.90;;;;;;5074200;28;20175;-48
2024/01/14 04:51:35;;;;;;;33.97;14.73;;;1.10;99.90;;;;;;5074181;28;20176;-45
2024/01/14 04:54:04;;;;;;;34.27;15.00;;;1.10;99.90;;;;;;5056678;28;20546;-47
2024/01/14 04:56:44;;;;;;;27.67;11.17;;;1.00;99.90;;;;;;5055889;28;20215;-46
2024/01/14 04:59:11;;;;;;;26.50;9.90;;;1.00;99.90;;;;;;5074348;28;20187;-46
2024/01/14 05:01:37;;;;;;;33.47;14.53;;;1.10;99.90;;;;;;5074046;28;20242;-47
2024/01/14 05:04:03;;;;;;;17.73;8.33;;;1.10;99.90;;;;;;5073874;28;20210;-48
2024/01/14 05:06:29;;;;;;;11.70;5.70;;;1.00;99.90;;;;;;5056487;28;20222;-48
2024/01/14 05:08:55;;;;;;;27.77;12.97;;;1.00;99.90;;;;;;5056005;28;20183;-46
2024/01/14 05:11:20;;;;;;;11.07;5.37;;;1.00;99.90;;;;;;5073853;28;20208;-47
2024/01/14 05:13:50;;;;;;;26.23;12.03;;;1.00;99.90;;;;;;5073779;28;20222;-47
2024/01/14 05:16:16;;;;;;;20.97;8.93;;;1.10;99.90;;;;;;5073937;28;20211;-45
2024/01/14 05:18:42;;;;;;;32.10;13.03;;;1.10;99.90;;;;;;5073713;28;20651;-46
2024/01/14 05:21:07;;;;;;;34.63;14.40;;;1.10;99.90;;;;;;5073779;28;20190;-46
2024/01/14 05:23:33;;;;;;;21.23;10.40;;;1.10;99.90;;;;;;5073809;28;20211;-47
2024/01/14 05:26:04;;;;;;;27.70;11.33;;;1.00;99.90;;;;;;5073493;28;20694;-44
2024/01/14 05:28:33;;;;;;;26.77;12.07;;;1.00;99.90;;;;;;5073893;28;20168;-49
2024/01/14 05:30:58;;;;;;;34.30;15.67;;;1.00;99.90;;;;;;5073420;28;20190;-48
2024/01/14 05:33:24;;;;;;;29.67;12.10;;;1.00;99.90;;;;;;5073722;28;20180;-46
2024/01/14 05:35:51;;;;;;;20.77;10.27;;;1.00;99.90;;;;;;5073445;28;20277;-46
2024/01/14 05:38:19;;;;;;;25.63;11.67;;;1.00;99.90;;;;;;5056041;28;20609;-47
2024/01/14 05:40:45;;;;;;;25.67;10.77;;;1.00;99.90;;;;;;5039035;28;20191;-46
2024/01/14 05:43:12;;;;;;;27.47;12.67;;;1.00;99.90;;;;;;5055378;28;20202;-46
2024/01/14 05:45:39;;;;;;;23.83;10.17;;;1.00;99.90;;;;;;5055451;28;20684;-46
2024/01/14 05:48:08;;;;;;;28.63;13.67;;;1.00;99.90;;;;;;5074161;28;20172;-46
2024/01/14 05:50:37;;;;;;;27.03;13.10;;;1.00;99.90;;;;;;5075665;28;20176;-42
2024/01/14 05:53:05;;;;;;;18.23;8.97;;;1.00;99.90;;;;;;5074947;28;20297;-42
2024/01/14 05:55:32;;;;;;;31.20;13.60;;;1.00;99.90;;;;;;5075194;28;20690;-41
2024/01/14 05:57:59;;;;;;;28.23;11.33;;;1.00;99.90;;;;;;5056528;28;20251;-41
2024/01/14 06:00:26;;;;;;;31.90;13.37;;;1.00;99.90;;;;;;5073624;28;20179;-42
2024/01/14 06:02:52;;;;;;;23.17;10.20;;;1.00;99.90;;;;;;5055466;28;20203;-43
2024/01/14 06:05:20;;;;;;;29.80;13.27;;;1.00;99.90;;;;;;5073348;28;20333;-41
2024/01/14 06:07:47;;;;;;;30.00;13.17;;;1.00;99.90;;;;;;5073540;28;20203;-44
2024/01/14 06:10:14;;;;;;;25.97;12.00;;;1.00;99.90;;;;;;5073566;28;20182;-44
2024/01/14 06:12:39;;;;;;;26.13;9.47;;;1.00;99.90;;;;;;5055801;28;20168;-41
2024/01/14 06:15:05;;;;;;;28.27;11.17;;;1.00;99.90;;;;;;5072218;28;20208;-41
2024/01/14 06:17:32;;;;;;;19.03;7.43;;;1.00;99.90;;;;;;5073292;28;20167;-44
2024/01/14 06:20:01;;;;;;;20.03;10.20;;;1.00;99.90;;;;;;5073221;28;20175;-44
2024/01/14 06:22:30;;;;;;;26.07;12.13;;;1.00;99.90;;;;;;5055126;28;20203;-47
2024/01/14 06:24:58;;;;;;;20.30;8.47;;;1.00;99.90;;;;;;5073075;28;20226;-47
2024/01/14 06:27:26;;;;;;;19.33;9.27;;;1.00;99.90;;;;;;5073622;28;20627;-46
2024/01/14 06:29:53;;;;;;;29.93;12.23;;;1.00;99.90;;;;;;5073564;28;20199;-49
2024/01/14 06:32:20;;;;;;;28.90;13.27;;;1.00;99.90;;;;;;5073088;28;20639;-48
2024/01/14 06:34:46;;;;;;;23.80;11.07;;;1.00;99.90;;;;;;5073194;28;20190;-48
2024/01/14 06:37:17;;;;;;;26.63;11.87;;;1.00;99.90;;;;;;5055424;28;20183;-46
2024/01/14 06:39:43;;;;;;;20.67;9.63;;;1.00;99.90;;;;;;5073257;28;20501;-49
2024/01/14 06:42:09;;;;;;;25.13;10.60;;;1.00;99.90;;;;;;5054945;28;20278;-46
2024/01/14 06:44:43;;;;;;;22.73;10.80;;;1.00;99.90;;;;;;5076946;28;20213;-47
2024/01/14 06:47:09;;;;;;;21.17;10.00;;;1.00;99.90;;;;;;5077314;28;20167;-46
2024/01/14 06:49:35;;;;;;;19.30;9.73;;;1.00;99.90;;;;;;5077074;28;20536;-46
2024/01/14 06:52:00;;;;;;;26.80;13.33;;;1.00;99.90;;;;;;5059204;28;20175;-41
2024/01/14 06:54:26;;;;;;;25.83;13.47;;;1.00;99.90;;;;;;5059144;28;20631;-43
2024/01/14 06:56:53;;;;;;;25.40;12.70;;;1.00;99.90;;;;;;5076421;28;20666;-42
2024/01/14 06:59:20;;;;;;;26.17;11.83;;;1.00;99.90;;;;;;5076809;28;20188;-42
2024/01/14 07:01:46;;;;;;;16.33;8.40;;;1.00;99.90;;;;;;5076696;28;20179;-41
2024/01/14 07:04:13;;;;;;;17.10;9.00;;;1.00;99.90;;;;;;5058375;28;20629;-43
2024/01/14 07:06:38;;;;;;;25.00;10.30;;;1.00;99.90;;;;;;5076890;28;20225;-43
2024/01/14 07:09:04;;;;;;;26.80;9.90;;;1.00;99.90;;;;;;5059757;28;20176;-42
2024/01/14 07:11:31;;;;;;;17.87;8.60;;;1.00;99.90;;;;;;5059797;28;20735;-40
2024/01/14 07:13:59;;;;;;;17.90;8.87;;;1.00;99.90;;;;;;5076575;28;20183;-42
2024/01/14 07:16:25;;;;;;;22.63;10.03;;;0.90;99.90;;;;;;5076072;28;20198;-41
2024/01/14 07:18:50;;;;;;;21.50;11.00;;;0.90;99.90;;;;;;5058312;28;20215;-42
2024/01/14 07:21:20;;;;;;;16.80;8.73;;;0.90;99.90;;;;;;5076278;28;20254;-41
2024/01/14 07:23:46;;;;;;;21.03;10.30;;;1.00;99.90;;;;;;5075976;28;20195;-44
2024/01/14 07:26:23;;;;;;;22.07;9.97;;;0.90;99.90;;;;;;5075823;28;20195;-42
2024/01/14 07:28:48;;;;;;;14.87;8.47;;;0.90;99.90;;;;;;5057590;28;20183;-43
2024/01/14 07:31:20;;;;;;;19.27;7.97;;;0.90;99.90;;;;;;5075885;28;20204;-42
2024/01/14 07:33:52;;;;;;;21.07;10.23;;;0.90;99.90;;;;;;5075683;28;20693;-43
2024/01/14 07:36:20;;;;;;;15.80;7.87;;;0.90;99.90;;;;;;5076005;28;20207;-42
2024/01/14 07:38:45;;;;;;;20.00;9.33;;;0.90;99.90;;;;;;5075958;28;20184;-42
2024/01/14 07:41:13;;;;;;;14.53;7.57;;;0.90;99.90;;;;;;5075910;28;20535;-42
2024/01/14 07:43:40;;;;;;;18.63;8.53;;;0.90;99.90;;;;;;5056763;28;20214;-42
2024/01/14 07:46:06;;;;;;;23.47;11.57;;;0.90;99.90;;;;;;5057744;28;20279;-42
2024/01/14 07:48:33;;;;;;;11.60;6.20;;;0.90;99.90;;;;;;5074818;28;20666;-42
2024/01/14 07:50:59;;;;;;;21.63;11.00;;;0.90;99.90;;;;;;5041052;28;20562;-42
2024/01/14 07:53:25;;;;;;;19.40;9.83;;;0.90;99.90;;;;;;5075335;28;20179;-39
2024/01/14 07:55:55;;;;;;;15.03;7.30;;;0.90;99.90;;;;;;5056622;28;20207;-41
2024/01/14 07:58:20;;;;;;;19.00;8.47;;;0.90;99.90;;;;;;5075476;28;20708;-43
2024/01/14 08:00:49;;;;;;;14.90;7.50;;;0.90;99.90;;;;;;5075370;28;20217;-41
2024/01/14 08:03:18;;;;;;;14.90;6.30;;;0.90;99.90;;;;;;5056818;28;20214;-42
2024/01/14 08:05:44;;;;;;;14.60;6.53;;;0.90;99.90;;;;;;5075341;28;20206;-44
2024/01/14 08:08:14;;;;;;;18.33;8.27;;;0.90;99.90;;;;;;5058486;28;20207;-42
2024/01/14 08:10:40;;;;;;;16.27;7.67;;;0.90;99.90;;;;;;5057922;28;20259;-41
2024/01/14 08:13:07;;;;;;;20.60;9.93;;;0.80;99.90;;;;;;5057255;28;20263;-43
2024/01/14 08:15:32;;;;;;;16.07;8.87;;;0.90;99.90;;;;;;5056502;28;20315;-42
2024/01/14 08:17:58;;;;;;;10.77;5.67;;;0.90;99.90;;;;;;5075061;28;20206;-42
2024/01/14 08:20:25;;;;;;;18.87;9.60;;;0.90;99.90;;;;;;5075072;28;20241;-42
2024/01/14 08:22:53;;;;;;;11.77;5.63;;;0.90;99.90;;;;;;5072798;28;20202;-42
2024/01/14 08:25:22;;;;;;;16.00;7.97;;;0.90;99.90;;;;;;5074282;28;20216;-42
2024/01/14 08:27:49;;;;;;;18.20;9.40;;;0.90;99.90;;;;;;5074813;28;20598;-42
2024/01/14 08:30:19;;;;;;;17.30;9.57;;;0.90;99.90;;;;;;5074667;28;20172;-42
2024/01/14 08:32:46;;;;;;;18.00;9.50;;;0.90;99.90;;;;;;5074609;28;20708;-41
2024/01/14 08:35:11;;;;;;;19.27;9.30;;;0.90;99.90;;;;;;5075607;28;20659;-43
2024/01/14 08:37:37;;;;;;;12.00;6.67;;;0.90;99.90;;;;;;5075863;28;20171;-47
2024/01/14 08:40:05;;;;;;;20.53;10.70;;;0.90;99.90;;;;;;5056890;28;20183;-40
2024/01/14 08:42:33;;;;;;;11.40;6.27;;;0.90;99.90;;;;;;5074503;28;20170;-43
2024/01/14 08:44:59;;;;;;;19.10;9.13;;;0.80;99.90;;;;;;5074151;28;20559;-40
2024/01/14 08:47:25;;;;;;;20.00;8.63;;;0.90;99.90;;;;;;5074263;28;20180;-41
2024/01/14 08:49:50;;;;;;;16.80;8.53;;;0.90;99.90;;;;;;5074474;28;20704;-43
2024/01/14 08:52:16;;;;;;;15.23;7.80;;;0.90;99.90;;;;;;5074472;28;20175;-41
2024/01/14 08:54:45;;;;;;;15.13;7.60;;;0.90;99.90;;;;;;5056258;28;20184;-43
2024/01/14 08:57:11;;;;;;;14.50;7.37;;;0.80;99.90;;;;;;5074075;28;20204;-42
2024/01/14 08:59:37;;;;;;;16.87;6.50;;;0.90;99.90;;;;;;5056705;28;20216;-41
2024/01/14 09:02:03;;;;;;;18.10;8.30;;;0.80;99.90;;;;;;5074226;28;20190;-43
2024/01/14 09:04:32;;;;;;;12.07;5.90;;;0.80;99.90;;;;;;5074168;28;20211;-42
2024/01/14 09:06:57;;;;;;;13.87;7.17;;;0.80;99.90;;;;;;5072939;28;20192;-43
2024/01/14 09:09:23;;;;;;;15.47;8.30;;;0.80;99.90;;;;;;5073920;28;20186;-41
2024/01/14 09:11:49;;;;;;;13.13;6.40;;;0.80;99.90;;;;;;5073818;28;20172;-42
2024/01/14 09:14:20;;;;;;;12.97;6.57;;;0.80;99.90;;;;;;5074495;28;20183;-45
2024/01/14 09:16:46;;;;;;;15.03;8.20;;;0.80;99.90;;;;;;5074313;28;20192;-42
2024/01/14 09:19:14;;;;;;;14.87;7.20;;;0.80;99.90;;;;;;5074049;28;20232;-41
2024/01/14 09:21:44;;;;;;;12.37;7.27;;;0.80;99.90;;;;;;5074057;28;20632;-40
2024/01/14 09:24:10;;;;;;;16.17;8.90;;;0.80;99.90;;;;;;5073994;28;20198;-42
2024/01/14 09:26:42;;;;;;;12.13;6.77;;;0.80;99.90;;;;;;5055865;28;20207;-41
2024/01/14 09:29:07;;;;;;;16.37;8.20;;;0.80;99.90;;;;;;5073616;28;20175;-42
2024/01/14 09:31:33;;;;;;;11.83;6.63;;;0.80;99.90;;;;;;5056171;28;20191;-42
2024/01/14 09:33:58;;;;;;;16.47;7.97;;;0.70;99.90;;;;;;5073574;28;20195;-40
2024/01/14 09:36:26;;;;;;;14.10;7.33;;;0.80;99.90;;;;;;5073465;28;20701;-42
2024/01/14 09:38:52;;;;;;;12.53;5.73;;;0.80;99.90;;;;;;5073500;28;20187;-40
2024/01/14 09:41:55;;;;;;;17.17;7.30;;;0.80;99.90;;;;;;5055964;28;20191;-41
2024/01/14 09:44:21;;;;;;;16.63;8.23;;;0.80;99.90;;;;;;5073668;28;20191;-41
2024/01/14 09:46:58;;;;;;;18.17;8.07;;;0.80;99.90;;;;;;5073542;28;20203;-39
2024/01/14 09:49:24;;;;;;;15.23;7.50;;;0.80;99.90;;;;;;5073931;28;20628;-41
2024/01/14 09:51:50;;;;;;;14.57;7.63;;;0.80;99.90;;;;;;5039367;28;20207;-40
2024/01/14 09:54:15;;;;;;;14.07;7.50;;;0.80;99.90;;;;;;5073585;28;20647;-42
2024/01/14 09:56:51;;;;;;;15.67;8.13;;;0.80;99.90;;;;;;5073327;28;20219;-41
2024/01/14 09:59:17;;;;;;;14.00;6.60;;;0.80;99.90;;;;;;5073961;28;20187;-47
2024/01/14 10:01:44;;;;;;;15.37;7.63;;;0.80;99.90;;;;;;5073324;28;20655;-45
2024/01/14 10:04:10;;;;;;;10.10;4.87;;;0.80;99.90;;;;;;5055445;28;20214;-48
2024/01/14 10:06:36;;;;;;;14.87;7.80;;;0.80;99.90;;;;;;5074634;28;20195;-46
2024/01/14 10:09:02;;;;;;;12.27;6.40;;;0.80;99.90;;;;;;5075316;28;20176;-46
2024/01/14 10:11:31;;;;;;;11.43;5.87;;;0.90;99.90;;;;;;5075226;28;20262;-47
2024/01/14 10:13:57;;;;;;;14.23;7.50;;;0.90;99.90;;;;;;5073748;28;20195;-47
2024/01/14 10:16:23;;;;;;;9.27;4.20;;;0.90;99.90;;;;;;5073879;28;20203;-45
2024/01/14 10:18:55;;;;;;;11.40;6.30;;;0.90;99.90;;;;;;5076071;28;20270;-47
2024/01/14 10:21:21;;;;;;;14.23;6.07;;;0.90;99.90;;;;;;5077587;28;20164;-47
2024/01/14 10:23:49;;;;;;;16.67;8.57;;;0.90;99.90;;;;;;5059290;28;20760;-47
2024/01/14 10:26:15;;;;;;;15.30;7.23;;;0.90;99.90;;;;;;5077012;28;20195;-48
2024/01/14 10:28:42;;;;;;;16.30;7.60;;;0.90;99.90;;;;;;5059395;28;20191;-46
2024/01/14 10:31:08;;;;;;;15.63;7.43;;;0.90;99.90;;;;;;5077316;28;20570;-47
2024/01/14 10:33:35;;;;;;;12.00;6.20;;;0.90;99.90;;;;;;5077159;28;20639;-46
2024/01/14 10:36:09;;;;;;;16.27;6.43;;;0.90;99.90;;;;;;5077070;28;20203;-47
2024/01/14 10:38:36;;;;;;;13.03;6.37;;;0.90;99.90;;;;;;5078128;28;20166;-47
2024/01/14 10:41:03;;;;;;;9.20;4.47;;;0.90;99.90;;;;;;5078247;28;20183;-46
2024/01/14 10:43:29;;;;;;;13.67;6.50;;;0.90;99.90;;;;;;5059767;28;20336;-46
2024/01/14 10:45:57;;;;;;;8.93;4.40;;;0.90;99.90;;;;;;5042062;28;20203;-46
2024/01/14 10:48:27;;;;;;;14.97;7.20;;;1.00;99.90;;;;;;5059198;28;20556;-45
2024/01/14 10:50:57;;;;;;;13.53;7.00;;;1.00;99.90;;;;;;5077048;28;20245;-47
2024/01/14 10:53:24;;;;;;;12.37;6.63;;;1.00;99.90;;;;;;5076759;28;20643;-47
2024/01/14 10:56:03;;;;;;;13.00;5.97;;;1.00;99.90;;;;;;5076729;28;20337;-47
2024/01/14 10:58:31;;;;;;;15.03;7.43;;;1.00;99.90;;;;;;5076572;28;20666;-46
2024/01/14 11:01:02;;;;;;;10.93;6.53;;;1.00;99.90;;;;;;5076751;28;20191;-48
2024/01/14 11:03:30;;;;;;;14.07;6.40;;;1.00;99.90;;;;;;5076496;28;20203;-49
2024/01/14 11:05:59;;;;;;;12.57;7.00;;;1.00;99.90;;;;;;5076325;28;20229;-48
2024/01/14 11:08:30;;;;;;;13.13;7.03;;;1.00;99.90;;;;;;5076528;28;20259;-47
2024/01/14 11:10:56;;;;;;;12.80;6.00;;;1.00;99.90;;;;;;5075320;28;20238;-49
2024/01/14 11:13:52;;;;;;;11.90;5.50;;;1.00;99.90;;;;;;5058740;28;20544;-49
2024/01/14 11:16:35;;;;;;;12.33;6.13;;;1.00;99.90;;;;;;5075039;28;20238;-47
2024/01/14 11:19:16;;;;;;;12.03;5.93;;;0.90;99.90;;;;;;5076138;28;20159;-49
2024/01/14 11:22:12;;;;;;;14.40;6.83;;;0.90;99.90;;;;;;5076632;28;20270;-48
2024/01/14 11:24:38;;;;;;;9.63;5.37;;;0.90;99.90;;;;;;5075972;28;20191;-47
2024/01/14 11:27:13;;;;;;;12.83;6.60;;;0.90;99.90;;;;;;5076236;28;20199;-49
2024/01/14 11:33:26;;;;;;;9.63;4.83;;;1.00;99.90;;;;;;5075898;28;20186;-48
2024/01/14 11:39:16;;;;;;;13.67;6.03;;;1.00;99.90;;;;;;5075977;28;20624;-47
2024/01/14 11:41:43;;;;;;;15.17;7.53;;;1.00;99.90;;;;;;5075024;28;20210;-48
2024/01/14 11:44:10;;;;;;;12.70;6.67;;;1.00;99.90;;;;;;5057844;28;20219;-47
2024/01/14 11:46:40;;;;;;;11.80;7.07;;;1.10;99.90;;;;;;5076099;28;20196;-47
2024/01/14 11:49:11;;;;;;;17.17;8.57;;;1.10;99.90;;;;;;5075534;28;20222;-48
2024/01/14 11:51:50;;;;;;;13.17;7.00;;;1.10;99.90;;;;;;5076083;28;20171;-47
2024/01/14 11:54:22;;;;;;;12.63;7.13;;;1.10;99.90;;;;;;5057613;28;20199;-49
2024/01/14 11:56:48;;;;;;;11.57;6.63;;;1.10;99.90;;;;;;5074558;28;20231;-47
2024/01/14 11:59:18;;;;;;;12.47;6.13;;;1.10;99.90;;;;;;5057140;28;20655;-45
2024/01/14 12:01:44;;;;;;;15.93;7.30;;;1.10;99.90;;;;;;5075455;28;20164;-47
2024/01/14 12:04:10;;;;;;;10.40;5.70;;;1.10;99.90;;;;;;5075803;28;20203;-46
2024/01/14 12:06:48;;;;;;;13.87;7.50;;;1.10;99.90;;;;;;5075094;28;20225;-46
2024/01/14 12:09:18;;;;;;;15.90;7.53;;;1.10;99.90;;;;;;5074900;28;20638;-46
2024/01/14 12:11:45;;;;;;;11.40;5.70;;;1.20;99.90;;;;;;5075219;28;20180;-47
2024/01/14 12:14:12;;;;;;;12.73;5.53;;;1.10;99.90;;;;;;5075160;28;20183;-47
2024/01/14 12:16:39;;;;;;;11.90;6.37;;;1.10;99.90;;;;;;5074783;28;20544;-48
2024/01/14 12:19:13;;;;;;;13.17;6.10;;;1.10;99.90;;;;;;5074793;28;20651;-46
2024/01/14 12:21:52;;;;;;;13.27;6.80;;;1.10;99.90;;;;;;5056450;28;20193;-48
2024/01/14 12:24:21;;;;;;;10.87;4.87;;;1.10;99.90;;;;;;5074826;28;20615;-47
2024/01/14 12:26:47;;;;;;;12.37;7.10;;;1.10;99.90;;;;;;5074809;28;20196;-46
2024/01/14 12:29:13;;;;;;;17.43;8.20;;;1.10;99.90;;;;;;5074579;28;20182;-47
2024/01/14 12:31:38;;;;;;;14.03;6.73;;;1.10;99.90;;;;;;5074790;28;20199;-48
2024/01/14 12:34:08;;;;;;;14.37;7.53;;;1.10;99.90;;;;;;5074446;28;20218;-47
2024/01/14 12:36:35;;;;;;;13.30;5.20;;;1.10;99.90;;;;;;5056479;28;20199;-46
2024/01/14 12:39:03;;;;;;;15.23;7.43;;;1.10;99.90;;;;;;5074432;28;20647;-47
2024/01/14 12:41:29;;;;;;;13.40;6.60;;;1.10;99.90;;;;;;5074647;28;20205;-45
2024/01/14 12:43:57;;;;;;;11.93;6.83;;;1.10;99.90;;;;;;5074143;28;20679;-42
2024/01/14 12:46:25;;;;;;;14.90;8.07;;;1.10;99.90;;;;;;5074494;28;20598;-41
2024/01/14 12:48:50;;;;;;;10.20;4.73;;;1.10;99.90;;;;;;5074245;28;20180;-42
2024/01/14 12:51:24;;;;;;;16.60;7.70;;;1.20;99.90;;;;;;5056305;28;20551;-42